1963 55P:HSK3963 (1963174S19159)


On this page: IBTrACS data - Map and Plots - Positions - Intensities - Original source data

Summary

Start Jun 23
End Jul 4
Basin SP
LMI 65 kt
Sources jtwc_sh
bom
td9636
neumann
ds824_au
ds824_sh
In WMO? Yes
Related storms 1963173S16155
Previous storm 1963 04B (NI)
Previous in basin 1963 54P (SP)
Concurrent storms 1963 SHIRLEY (WP)
1963 TRIX (WP)
1963 54P (SP)
1963 04B (NI)
1963 55P (SP)
1963 EMILY (EP)
1963 VIRGINIA (WP)
1963 06B (NI)
Next in basin Missing
Next storm 1963 EMILY (EP)

top of page IBTrACS Data: File Access

No storm imagery available

top of page Plots:

Map of storm track will not appear if FTP is down
Time series of cyclone Maximum Sustained Wind will not appear if FTP is down
Time series of cyclone Minimum Central Pressure will not appear if FTP is down

top of page Track Data:Position

jtwc_sh bom td9636 neumann ds824_au ds824_sh
Date Lat Lon Lat Lon Lat Lon Lat Lon Lat Lon Lat Lon
1963-06-23 00:00:00 -19.1 159.3 -19.1 159.3 -19.1 159.3 -19.1 159.3
1963-06-23 06:00:00 -19.7 159.2 -19.2 159.3 -19.7 159.2 -19.7 159.2 -19.2 159.2 -19.7 159.2
1963-06-23 12:00:00 -20.3 159.0 -20.3 158.9 -20.3 159.0 -20.3 159.0 -20.3 158.9 -20.3 159.0
1963-06-23 18:00:00 -20.9 158.6 -20.9 158.6 -20.9 158.6 -20.9 158.6 -20.9 158.6 -20.9 158.6
1963-06-24 00:00:00 -21.4 158.4 -21.4 158.4 -21.4 158.4 -21.4 158.4 -21.4 158.4 -21.4 158.4
1963-06-24 06:00:00 -21.7 158.4 -21.7 158.4 -21.7 158.4 -21.7 158.4 -21.7 158.4 -21.7 158.4
1963-06-24 12:00:00 -22.1 158.4 -22.1 158.4 -22.1 158.4 -22.1 158.4 -22.1 158.4 -22.1 158.4
1963-06-24 18:00:00 -22.4 158.4 -22.5 158.4 -22.4 158.3 -22.4 158.4 -22.5 158.4 -22.4 158.4
1963-06-25 00:00:00 -22.9 158.4 -22.9 158.4 -22.9 158.4 -22.9 158.4 -22.9 158.4 -22.9 158.4
1963-06-25 06:00:00 -23.7 158.8 -23.6 158.7 -23.7 158.8 -23.7 158.8 -23.6 158.7 -23.7 158.8
1963-06-25 12:00:00 -24.4 159.6 -24.4 159.6 -24.4 159.6 -24.4 159.6 -24.4 159.6 -24.4 159.6
1963-06-25 18:00:00 -24.7 160.9 -24.9 160.8 -24.7 160.9 -24.7 160.9 -24.9 160.8 -24.7 160.9
1963-06-26 00:00:00 -25.2 162.2 -25.2 162.3 -25.2 162.2 -25.2 162.2 -25.2 162.2 -25.2 162.2
1963-06-26 06:00:00 -26.1 163.0 -26.0 163.5 -26.1 163.1 -26.1 163.0 -26.0 163.4 -26.1 163.0
1963-06-26 12:00:00 -26.9 163.4 -26.9 163.4 -26.9 163.4 -26.9 163.4 -26.9 163.3 -26.9 163.4
1963-06-26 18:00:00 -27.4 163.0 -27.5 162.9 -27.4 163.1 -27.4 163.0 -27.5 163.0 -27.4 163.0
1963-06-27 00:00:00 -27.9 162.9 -27.9 162.8 -27.9 162.8 -27.9 162.9 -27.9 162.8 -27.9 162.9
1963-06-27 06:00:00 -28.7 163.3 -28.6 163.1 -28.7 163.2 -28.7 163.3 -28.7 163.1 -28.7 163.3
1963-06-27 12:00:00 -29.5 163.6 -29.5 163.7 -29.5 163.7 -29.5 163.6 -29.5 163.7 -29.5 163.6
1963-06-27 18:00:00 -30.2 163.9 -30.1 164.0 -30.2 163.9 -30.2 163.9 -30.1 164.0 -30.2 163.9
1963-06-28 00:00:00 -30.7 164.0 -30.7 164.0 -30.7 164.0 -30.7 164.0 -30.7 164.0 -30.7 164.0
1963-06-28 06:00:00 -31.0 163.9 -30.9 163.8 -31.0 163.9 -31.0 163.9 -30.9 163.7 -31.0 163.9
1963-06-28 12:00:00 -31.1 163.5 -31.1 163.5 -31.1 163.5 -31.1 163.5 -31.1 163.4 -31.1 163.5
1963-06-28 18:00:00 -31.1 163.2 -31.1 163.1 -31.1 163.2 -31.1 163.2 -31.1 163.1 -31.1 163.2
1963-06-29 00:00:00 -31.0 162.7 -31.0 162.7 -31.0 162.7 -31.0 162.7 -31.0 162.7 -31.0 162.7
jtwc_sh bom td9636 neumann ds824_au ds824_sh
1963-06-29 06:00:00 -30.8 162.2 -30.8 162.2 -30.8 162.2 -30.8 162.2 -30.7 162.2 -30.8 162.2
1963-06-29 12:00:00 -30.4 161.7 -30.4 161.7 -30.4 161.7 -30.4 161.7 -30.4 161.7 -30.4 161.7
1963-06-29 18:00:00 -29.7 161.5 -29.7 161.4 -29.7 161.5 -29.7 161.5 -29.7 161.4 -29.7 161.5
1963-06-30 00:00:00 -29.0 161.4 -29.0 161.4 -29.0 161.4 -29.0 161.4 -29.0 161.4 -29.0 161.4
1963-06-30 06:00:00 -28.6 161.5 -28.7 161.4 -28.6 161.4 -28.6 161.5 -28.7 161.5 -28.6 161.5
1963-06-30 12:00:00 -28.5 161.8 -28.5 161.7 -28.5 161.8 -28.5 161.8 -28.5 161.8 -28.5 161.8
1963-06-30 18:00:00 -28.5 162.3 -28.4 162.1 -28.5 162.3 -28.5 162.3 -28.5 162.2 -28.5 162.3
1963-07-01 00:00:00 -28.8 163.2 -28.8 163.2 -28.7 163.1 -28.8 163.2 -28.8 163.0 -28.8 163.2
1963-07-01 06:00:00 -29.2 164.2 -29.2 164.2 -29.1 164.2 -29.2 164.2 -29.2 164.1 -29.2 164.2
1963-07-01 12:00:00 -29.6 165.2 -29.5 165.2 -29.6 165.2 -29.6 165.2 -29.5 165.1 -29.6 165.2
1963-07-01 18:00:00 -30.0 166.0 -29.8 166.1 -30.0 166.0 -30.0 166.0 -29.8 166.0 -30.0 166.0
1963-07-02 00:00:00 -30.5 166.7 -30.3 166.8 -30.5 166.7 -30.5 166.7 -30.2 166.7 -30.5 166.7
1963-07-02 06:00:00 -31.0 167.2 -30.9 167.2 -31.0 167.2 -31.0 167.2 -30.9 167.2 -31.0 167.2
1963-07-02 12:00:00 -31.7 167.4 -31.7 167.4 -31.7 167.4 -31.7 167.4 -31.8 167.4 -31.7 167.4
1963-07-02 18:00:00 -32.7 167.6 -32.7 167.6 -32.7 167.6 -32.7 167.6 -32.7 167.6 -32.7 167.6
1963-07-03 00:00:00 -33.6 167.8 -33.7 167.8 -33.7 167.8 -33.6 167.8 -33.7 167.9 -33.6 167.8
1963-07-03 06:00:00 -34.5 168.1 -34.5 168.2 -34.5 168.1 -34.5 168.1 -34.5 168.2 -34.5 168.1
1963-07-03 12:00:00 -35.3 168.5 -35.3 168.4 -35.3 168.5 -35.3 168.5 -35.3 168.5 -35.3 168.5
1963-07-03 18:00:00 -36.1 168.8 -36.1 168.8 -36.1 168.8 -36.1 168.8 -36.1 168.8 -36.1 168.8
1963-07-04 00:00:00 -36.8 169.2 -36.8 169.2

top of pageTrack Data:Intensity

jtwc_sh bom td9636 neumann ds824_au ds824_sh
Date Wind Pres Wind Pres Wind Pres Wind Pres Wind Pres Wind Pres
1963-06-23 00:00:00 25. 25. 25. 25.
1963-06-23 06:00:00 25. 1001. 25. 25. 30. 1001. 25.
1963-06-23 12:00:00 25. 1005. 25. 25. 20. 1005. 25.
1963-06-23 18:00:00 25. 1004. 25. 25. 20. 1004. 25.
1963-06-24 00:00:00 25. 1003. 25. 25. 25. 1003. 25.
1963-06-24 06:00:00 25. 1004. 27. 25. 20. 1004. 25.
1963-06-24 12:00:00 25. 1005. 27. 25. 20. 1005. 25.
1963-06-24 18:00:00 25. 1006. 26. 25. 15. 1006. 25.
1963-06-25 00:00:00 25. 1006. 26. 25. 15. 1006. 25.
1963-06-25 06:00:00 20. 1006. 20. 20. 15. 1006. 20.
1963-06-25 12:00:00 20. 1007. 20. 20. 15. 1007. 20.
1963-06-25 18:00:00 25. 1007. 28. 25. 15. 1007. 25.
1963-06-26 00:00:00 30. 1005. 28. 30. 20. 1005. 30.
1963-06-26 06:00:00 30. 1000. 30. 30. 30. 1000. 30.
1963-06-26 12:00:00 30. 1002. 30. 30. 25. 1002. 30.
1963-06-26 18:00:00 20. 1001. 15. 20. 30. 1001. 20.
1963-06-27 00:00:00 15. 1001. 15. 15. 30. 1001. 15.
1963-06-27 06:00:00 20. 1000. 25. 20. 30. 1000. 20.
1963-06-27 12:00:00 25. 1000. 25. 25. 30. 1000. 25.
1963-06-27 18:00:00 20. 1002. 20. 20. 25. 1002. 20.
1963-06-28 00:00:00 20. 1003. 20. 20. 25. 1003. 20.
1963-06-28 06:00:00 25. 1004. 30. 25. 20. 1004. 25.
1963-06-28 12:00:00 30. 1008. 30. 30. 20. 1004. 30.
1963-06-28 18:00:00 30. 1008. 25. 30. 15. 1008. 30.
1963-06-29 00:00:00 25. 1009. 25. 25. 15. 1009. 25.
jtwc_sh bom td9636 neumann ds824_au ds824_sh
1963-06-29 06:00:00 20. 1008. 15. 20. 15. 1008. 20.
1963-06-29 12:00:00 15. 1006. 15. 15. 15. 1006. 15.
1963-06-29 18:00:00 20. 1005. 24. 20. 20. 1005. 20.
1963-06-30 00:00:00 25. 1003. 24. 25. 25. 1003. 25.
1963-06-30 06:00:00 20. 1002. 20. 20. 25. 1002. 20.
1963-06-30 12:00:00 20. 1002. 20. 20. 25. 1002. 20.
1963-06-30 18:00:00 15. 1002. 15. 15. 25. 1002. 15.
1963-07-01 00:00:00 15. 1000. 15. 15. 25. 1002. 15.
1963-07-01 06:00:00 15. 997. 20. 15. 35. 997. 15.
1963-07-01 12:00:00 20. 997. 20. 20. 35. 997. 20.
1963-07-01 18:00:00 30. 993. 40. 30. 35. 997. 30.
1963-07-02 00:00:00 40. 993. 40. 40. 40. 993. 40.
1963-07-02 06:00:00 25. 993. 15. 25. 40. 993. 25.
1963-07-02 12:00:00 15. 991. 15. 15. 45. 991. 15.
1963-07-02 18:00:00 15. 988. 65. 15. 50. 988. 15.
1963-07-03 00:00:00 20. 987. 65. 20. 50. 987. 20.
1963-07-03 06:00:00 25. 986. 25. 50. 986. 25.
1963-07-03 12:00:00 35. 988. 35. 50. 988. 35.
1963-07-03 18:00:00 50. 990. 50. 45. 990. 50.
1963-07-04 00:00:00 994.

top of page Links to source data

Source Source file Format
jtwc_sh bsh551963.txt ATCF
bom IDCKMSTM0S.csv:Line=3824:unnamed CSV file (from Excel file)
td9636 cons_worldwide_trop_cyclone_18710101-19891231-006:Line=6672 TD 9636
neumann tracks.sh:Storm=85:HSK3963:BSH5563:JTWC HURDAT
ds824_au aus_area.dat:350:NOT NAMED HURDAT
ds824_sh s_hem.dat:904:55P HURDAT